Time;durP1;ratioP1;P1;durP2;ratioP2;P2;SDS_P1;SDS_P2;PMS_P1;PMS_P2;Temp;Humidity;BMP_temperature;BMP_pressure;BME280_temperature;BME280_humidity;BME280_pressure;Samples;Min_cycle;Max_cycle;Signal;HPM_P1;HPM_P2
2021/06/11 00:01:20;;;;;;;7.07;4.60;;;;;;;;;;4958433;28;20454;-79
2021/06/11 00:03:45;;;;;;;6.30;4.18;;;;;;;;;;4956366;29;20027;-79
2021/06/11 00:06:10;;;;;;;7.32;3.90;;;;;;;;;;4938244;29;20054;-79
2021/06/11 00:08:35;;;;;;;8.27;3.92;;;;;;;;;;4956026;28;20016;-79
2021/06/11 00:11:01;;;;;;;5.35;3.60;;;;;;;;;;4973743;28;20081;-79
2021/06/11 00:13:26;;;;;;;6.75;3.63;;;;;;;;;;4975893;28;20037;-79
2021/06/11 00:15:51;;;;;;;4.03;3.55;;;;;;;;;;4955874;28;20023;-79
2021/06/11 00:18:17;;;;;;;7.05;3.60;;;;;;;;;;4944502;28;20031;-79
2021/06/11 00:20:42;;;;;;;6.90;3.95;;;;;;;;;;4975661;28;20018;-79
2021/06/11 00:23:07;;;;;;;7.03;3.70;;;;;;;;;;4955558;29;20051;-79
2021/06/11 00:25:32;;;;;;;6.05;3.55;;;;;;;;;;4972488;28;20089;-79
2021/06/11 00:28:01;;;;;;;5.50;3.50;;;;;;;;;;4961897;28;20019;-79
2021/06/11 00:30:28;;;;;;;4.95;3.42;;;;;;;;;;4967037;28;20047;-79
2021/06/11 00:32:54;;;;;;;5.05;3.20;;;;;;;;;;4960358;29;20461;-79
2021/06/11 00:35:19;;;;;;;4.38;2.97;;;;;;;;;;4958177;29;20055;-79
2021/06/11 00:37:45;;;;;;;5.28;3.15;;;;;;;;;;4975334;28;20026;-79
2021/06/11 00:40:10;;;;;;;5.22;3.08;;;;;;;;;;4975770;28;20062;-79
2021/06/11 00:42:36;;;;;;;5.38;3.10;;;;;;;;;;4945614;28;20027;-78
2021/06/11 00:45:03;;;;;;;3.80;2.78;;;;;;;;;;4975290;28;20501;-79
2021/06/11 00:47:28;;;;;;;3.15;2.85;;;;;;;;;;4956384;29;20019;-79
2021/06/11 00:49:53;;;;;;;4.68;2.80;;;;;;;;;;4978664;28;20073;-79
2021/06/11 00:52:18;;;;;;;6.20;3.83;;;;;;;;;;4964254;28;20350;-79
2021/06/11 00:54:44;;;;;;;6.45;3.42;;;;;;;;;;4965890;28;20388;-78
2021/06/11 00:57:10;;;;;;;8.63;3.70;;;;;;;;;;4942229;29;20027;-79
2021/06/11 00:59:36;;;;;;;6.03;3.72;;;;;;;;;;4941790;29;20338;-79
2021/06/11 01:02:01;;;;;;;5.15;3.70;;;;;;;;;;4926098;29;20027;-79
2021/06/11 01:04:27;;;;;;;4.68;3.30;;;;;;;;;;4958778;29;20147;-79
2021/06/11 01:06:52;;;;;;;4.57;3.30;;;;;;;;;;4967048;28;20451;-79
2021/06/11 01:09:18;;;;;;;5.43;3.92;;;;;;;;;;4962418;28;20422;-79
2021/06/11 01:11:44;;;;;;;6.93;3.95;;;;;;;;;;4940639;29;20031;-78
2021/06/11 01:14:09;;;;;;;5.13;3.90;;;;;;;;;;4956804;29;20039;-79
2021/06/11 01:16:37;;;;;;;8.10;4.55;;;;;;;;;;4942058;29;20030;-79
2021/06/11 01:19:02;;;;;;;9.68;4.47;;;;;;;;;;4961096;28;20019;-79
2021/06/11 01:21:29;;;;;;;5.53;3.90;;;;;;;;;;4960959;28;20035;-78
2021/06/11 01:24:24;;;;;;;5.40;3.72;;;;;;;;;;4941029;29;20030;-79
2021/06/11 01:26:50;;;;;;;5.95;4.38;;;;;;;;;;4929740;29;20465;-78
2021/06/11 01:29:17;;;;;;;9.60;4.10;;;;;;;;;;4944680;29;20027;-79
2021/06/11 01:31:45;;;;;;;4.88;3.70;;;;;;;;;;4946009;29;20011;-79
2021/06/11 01:34:13;;;;;;;6.82;3.60;;;;;;;;;;4967199;29;20061;-80
2021/06/11 01:36:40;;;;;;;4.07;3.17;;;;;;;;;;4950403;29;20023;-79
2021/06/11 01:39:07;;;;;;;5.97;3.25;;;;;;;;;;4951704;29;20015;-80
2021/06/11 01:41:33;;;;;;;5.38;3.60;;;;;;;;;;4947078;29;20327;-79
2021/06/11 01:43:59;;;;;;;5.57;3.45;;;;;;;;;;4941723;29;20062;-79
2021/06/11 01:46:26;;;;;;;4.57;3.35;;;;;;;;;;4948395;29;20404;-79
2021/06/11 01:48:52;;;;;;;6.20;3.58;;;;;;;;;;4954587;29;20058;-78
2021/06/11 01:51:18;;;;;;;5.15;3.10;;;;;;;;;;4923631;29;20060;-78
2021/06/11 01:53:44;;;;;;;8.23;3.25;;;;;;;;;;4957826;28;20442;-78
2021/06/11 01:56:10;;;;;;;3.95;3.35;;;;;;;;;;4946532;29;20031;-78
2021/06/11 01:58:36;;;;;;;5.75;3.55;;;;;;;;;;4958538;28;20090;-78
2021/06/11 02:01:03;;;;;;;5.50;3.15;;;;;;;;;;4929069;29;20028;-79
2021/06/11 02:03:28;;;;;;;4.30;3.15;;;;;;;;;;4937367;29;20039;-79
2021/06/11 02:05:53;;;;;;;6.53;3.65;;;;;;;;;;4939876;29;20027;-79
2021/06/11 02:08:20;;;;;;;4.32;3.10;;;;;;;;;;4955623;28;20042;-79
2021/06/11 02:10:46;;;;;;;5.43;3.50;;;;;;;;;;4956546;29;20473;-79
2021/06/11 02:13:11;;;;;;;6.70;3.65;;;;;;;;;;4953889;29;20023;-79
2021/06/11 02:15:37;;;;;;;4.28;3.50;;;;;;;;;;4924870;29;20122;-79
2021/06/11 02:18:03;;;;;;;5.18;3.78;;;;;;;;;;4956503;29;20098;-79
2021/06/11 02:20:29;;;;;;;5.72;3.90;;;;;;;;;;4952710;29;20143;-78
2021/06/11 02:22:55;;;;;;;7.07;4.07;;;;;;;;;;4961790;28;20058;-79
2021/06/11 02:25:23;;;;;;;6.00;4.32;;;;;;;;;;4940224;29;20362;-79
2021/06/11 02:27:48;;;;;;;5.40;4.30;;;;;;;;;;4938889;29;20031;-79
2021/06/11 02:30:17;;;;;;;6.78;4.53;;;;;;;;;;4944843;29;20023;-79
2021/06/11 02:32:42;;;;;;;6.13;4.50;;;;;;;;;;4956906;29;20098;-78
2021/06/11 02:35:08;;;;;;;5.97;4.80;;;;;;;;;;4954245;29;20593;-79
2021/06/11 02:37:34;;;;;;;9.00;4.95;;;;;;;;;;4939876;29;20027;-78
2021/06/11 02:40:00;;;;;;;7.80;5.10;;;;;;;;;;4967123;28;20066;-79
2021/06/11 02:42:26;;;;;;;6.32;4.53;;;;;;;;;;4974953;28;20121;-79
2021/06/11 02:44:53;;;;;;;5.97;4.20;;;;;;;;;;4943681;29;20029;-79
2021/06/11 02:47:20;;;;;;;6.07;4.32;;;;;;;;;;4939426;29;20484;-79
2021/06/11 02:49:49;;;;;;;5.68;3.97;;;;;;;;;;4937934;29;20402;-79
2021/06/11 02:52:15;;;;;;;5.32;4.32;;;;;;;;;;4956369;29;20446;-79
2021/06/11 02:54:42;;;;;;;7.43;3.97;;;;;;;;;;4954103;28;20038;-78
2021/06/11 02:57:23;;;;;;;5.47;3.63;;;;;;;;;;4934911;29;20098;-79
2021/06/11 02:59:54;;;;;;;7.55;4.13;;;;;;;;;;4936571;29;20051;-79
2021/06/11 03:02:21;;;;;;;6.95;4.00;;;;;;;;;;4953209;29;20027;-78
2021/06/11 03:04:48;;;;;;;5.82;3.70;;;;;;;;;;4955489;29;20038;-79
2021/06/11 03:07:22;;;;;;;5.68;3.30;;;;;;;;;;4937726;29;20090;-79
2021/06/11 03:09:47;;;;;;;5.65;3.58;;;;;;;;;;4938408;29;20051;-79
2021/06/11 03:12:13;;;;;;;5.93;3.70;;;;;;;;;;4923321;29;20027;-79
2021/06/11 03:14:39;;;;;;;5.85;3.60;;;;;;;;;;4945947;28;20019;-79
2021/06/11 03:17:04;;;;;;;7.18;3.60;;;;;;;;;;4939558;29;20034;-79
2021/06/11 03:19:31;;;;;;;5.55;3.65;;;;;;;;;;4938060;29;20038;-79
2021/06/11 03:21:59;;;;;;;4.88;3.60;;;;;;;;;;4956112;28;20493;-79
2021/06/11 03:24:29;;;;;;;4.35;3.45;;;;;;;;;;4955633;29;20035;-79
2021/06/11 03:27:05;;;;;;;6.75;4.03;;;;;;;;;;4956360;28;20084;-79
2021/06/11 03:29:35;;;;;;;5.75;4.07;;;;;;;;;;4974753;28;20093;-79
2021/06/11 03:32:03;;;;;;;6.95;4.30;;;;;;;;;;4968739;28;20103;-79
2021/06/11 03:34:41;;;;;;;7.90;4.38;;;;;;;;;;4956856;29;20139;-79
2021/06/11 03:37:09;;;;;;;6.78;4.03;;;;;;;;;;4938839;29;20027;-79
2021/06/11 03:40:02;;;;;;;6.50;3.90;;;;;;;;;;4944940;29;20023;-79
2021/06/11 03:42:28;;;;;;;5.95;5.18;;;;;;;;;;4935762;29;20054;-79
2021/06/11 03:44:55;;;;;;;8.40;4.90;;;;;;;;;;4922126;29;20027;-79
2021/06/11 03:47:21;;;;;;;8.75;5.38;;;;;;;;;;4941107;29;20019;-79
2021/06/11 03:49:48;;;;;;;7.55;5.20;;;;;;;;;;4974038;28;20114;-79
2021/06/11 03:52:13;;;;;;;11.95;6.22;;;;;;;;;;4951498;29;20050;-79
2021/06/11 03:54:44;;;;;;;6.47;5.40;;;;;;;;;;4939220;29;20446;-79
2021/06/11 03:57:09;;;;;;;8.65;6.32;;;;;;;;;;4922738;29;20039;-79
2021/06/11 03:59:36;;;;;;;8.05;4.97;;;;;;;;;;4953306;29;20457;-79
2021/06/11 04:02:02;;;;;;;7.65;5.47;;;;;;;;;;4959859;29;20023;-79
2021/06/11 04:04:27;;;;;;;8.43;6.20;;;;;;;;;;4940773;29;20055;-79
2021/06/11 04:07:00;;;;;;;9.60;6.77;;;;;;;;;;4941727;29;20051;-78
2021/06/11 04:09:28;;;;;;;8.75;6.95;;;;;;;;;;4959860;29;20267;-79
2021/06/11 04:12:00;;;;;;;10.40;6.07;;;;;;;;;;4967723;29;20034;-79
2021/06/11 04:14:26;;;;;;;7.68;5.70;;;;;;;;;;4963526;29;20054;-80
2021/06/11 04:16:53;;;;;;;6.82;5.40;;;;;;;;;;4969110;28;20019;-79
2021/06/11 04:19:26;;;;;;;13.27;6.60;;;;;;;;;;4969236;28;20031;-79
2021/06/11 04:21:53;;;;;;;5.60;4.80;;;;;;;;;;4966134;28;20369;-79
2021/06/11 04:24:22;;;;;;;7.03;5.32;;;;;;;;;;4949751;29;20016;-80
2021/06/11 04:26:48;;;;;;;5.45;4.90;;;;;;;;;;4960200;28;20805;-79
2021/06/11 04:29:16;;;;;;;6.22;4.70;;;;;;;;;;4966786;28;20024;-80
2021/06/11 04:31:42;;;;;;;5.35;4.43;;;;;;;;;;4973239;28;20023;-79
2021/06/11 04:34:07;;;;;;;5.93;4.95;;;;;;;;;;4951569;29;20409;-80
2021/06/11 04:36:34;;;;;;;7.70;5.50;;;;;;;;;;4959320;28;20050;-79
2021/06/11 04:39:00;;;;;;;5.57;4.80;;;;;;;;;;4959837;28;20469;-80
2021/06/11 04:41:26;;;;;;;7.82;4.90;;;;;;;;;;4943887;29;20043;-80
2021/06/11 04:43:52;;;;;;;5.95;4.90;;;;;;;;;;4962027;28;20023;-79
2021/06/11 04:46:17;;;;;;;8.60;5.15;;;;;;;;;;4948262;29;20458;-80
2021/06/11 04:48:42;;;;;;;8.32;4.90;;;;;;;;;;4951265;29;20028;-80
2021/06/11 04:51:08;;;;;;;6.25;4.88;;;;;;;;;;4944243;28;20034;-79
2021/06/11 04:53:33;;;;;;;6.70;4.95;;;;;;;;;;4958906;28;20028;-79
2021/06/11 04:55:58;;;;;;;6.15;4.78;;;;;;;;;;4939844;29;20019;-79
2021/06/11 04:58:26;;;;;;;5.75;4.78;;;;;;;;;;4955443;28;20018;-79
2021/06/11 05:00:51;;;;;;;5.85;4.18;;;;;;;;;;4960816;28;20082;-80
2021/06/11 05:03:16;;;;;;;4.93;3.88;;;;;;;;;;4968382;28;20093;-79
2021/06/11 05:05:42;;;;;;;5.63;4.20;;;;;;;;;;4953095;29;20030;-80
2021/06/11 05:08:07;;;;;;;4.47;3.90;;;;;;;;;;4952713;29;20051;-80
2021/06/11 05:10:32;;;;;;;4.90;4.40;;;;;;;;;;4936219;29;20050;-80
2021/06/11 05:12:57;;;;;;;5.85;3.95;;;;;;;;;;4939830;28;20023;-79
2021/06/11 05:15:23;;;;;;;5.10;4.05;;;;;;;;;;4944017;29;20031;-77
2021/06/11 05:17:48;;;;;;;7.05;4.40;;;;;;;;;;4941331;28;20034;-79
2021/06/11 05:20:14;;;;;;;5.88;5.30;;;;;;;;;;4955125;28;20031;-79
2021/06/11 05:22:39;;;;;;;9.40;5.80;;;;;;;;;;4940948;29;20039;-79
2021/06/11 05:25:05;;;;;;;5.85;5.22;;;;;;;;;;4954083;28;20599;-79
2021/06/11 05:27:30;;;;;;;6.93;5.25;;;;;;;;;;4957374;28;20447;-79
2021/06/11 05:29:55;;;;;;;6.85;4.85;;;;;;;;;;4938152;29;20016;-79
2021/06/11 05:32:20;;;;;;;6.70;5.05;;;;;;;;;;4945246;29;20496;-79
2021/06/11 05:34:45;;;;;;;9.40;5.95;;;;;;;;;;4957677;28;20370;-79
2021/06/11 05:37:11;;;;;;;7.47;5.23;;;;;;;;;;4940467;28;20052;-79
2021/06/11 05:39:36;;;;;;;5.70;4.70;;;;;;;;;;4943398;29;20272;-79
2021/06/11 05:42:01;;;;;;;7.20;4.95;;;;;;;;;;4946518;29;20023;-79
2021/06/11 05:44:27;;;;;;;5.40;4.57;;;;;;;;;;4925429;29;20023;-80
2021/06/11 05:46:52;;;;;;;6.38;5.10;;;;;;;;;;4942788;29;20138;-79
2021/06/11 05:49:17;;;;;;;6.10;4.50;;;;;;;;;;4961269;28;20023;-79
2021/06/11 05:51:42;;;;;;;5.17;4.07;;;;;;;;;;4929718;29;20379;-79
2021/06/11 05:54:07;;;;;;;5.88;4.30;;;;;;;;;;4958455;28;20262;-80
2021/06/11 05:56:33;;;;;;;6.05;4.32;;;;;;;;;;4929474;29;20023;-79
2021/06/11 05:58:58;;;;;;;5.57;3.88;;;;;;;;;;4961812;28;21894;-78
2021/06/11 06:01:23;;;;;;;4.53;3.57;;;;;;;;;;4963922;28;20034;-80
2021/06/11 06:03:49;;;;;;;7.15;3.92;;;;;;;;;;4961995;28;20265;-79
2021/06/11 06:06:14;;;;;;;6.70;4.13;;;;;;;;;;4939676;29;20032;-78
2021/06/11 06:08:39;;;;;;;6.22;3.63;;;;;;;;;;4962179;28;20020;-79
2021/06/11 06:11:04;;;;;;;4.20;3.47;;;;;;;;;;4945955;29;20027;-79
2021/06/11 06:13:30;;;;;;;5.90;3.90;;;;;;;;;;4928561;29;20047;-79
2021/06/11 06:15:55;;;;;;;6.88;3.30;;;;;;;;;;4948628;29;20035;-79
2021/06/11 06:18:21;;;;;;;4.45;3.22;;;;;;;;;;4950647;29;20019;-79
2021/06/11 06:20:47;;;;;;;4.13;3.60;;;;;;;;;;4950740;29;20033;-79
2021/06/11 06:23:13;;;;;;;7.18;3.88;;;;;;;;;;4947248;28;20500;-80
2021/06/11 06:25:38;;;;;;;5.65;3.92;;;;;;;;;;4954545;28;20035;-79
2021/06/11 06:28:04;;;;;;;6.22;4.40;;;;;;;;;;4942291;29;20114;-79
2021/06/11 06:30:29;;;;;;;6.45;4.72;;;;;;;;;;4958405;28;20031;-80
2021/06/11 06:32:54;;;;;;;7.05;4.70;;;;;;;;;;4961029;28;20032;-81
2021/06/11 06:35:20;;;;;;;5.93;4.57;;;;;;;;;;4939365;29;20031;-79
2021/06/11 06:37:45;;;;;;;5.88;4.78;;;;;;;;;;4954540;28;20030;-80
2021/06/11 06:40:11;;;;;;;5.78;4.28;;;;;;;;;;4943314;29;20339;-79
2021/06/11 06:42:36;;;;;;;7.18;5.00;;;;;;;;;;4958170;28;20023;-79
2021/06/11 06:45:02;;;;;;;7.50;5.30;;;;;;;;;;4954807;28;20150;-79
2021/06/11 06:47:27;;;;;;;6.80;4.68;;;;;;;;;;4959031;28;20118;-79
2021/06/11 06:49:52;;;;;;;6.93;5.25;;;;;;;;;;4955474;28;20070;-79
2021/06/11 06:52:18;;;;;;;7.65;4.88;;;;;;;;;;4928072;29;20033;-78
2021/06/11 06:54:43;;;;;;;9.63;6.45;;;;;;;;;;4972044;28;20041;-81
2021/06/11 06:57:09;;;;;;;8.73;6.50;;;;;;;;;;4965961;28;20023;-80
2021/06/11 06:59:34;;;;;;;10.00;6.07;;;;;;;;;;4939282;29;20027;-79
2021/06/11 07:02:00;;;;;;;7.70;5.90;;;;;;;;;;4952428;29;20035;-80
2021/06/11 07:04:26;;;;;;;8.25;5.75;;;;;;;;;;4952019;29;20031;-80
2021/06/11 07:06:51;;;;;;;8.82;7.47;;;;;;;;;;4968497;28;20033;-80
2021/06/11 07:09:17;;;;;;;8.95;6.03;;;;;;;;;;4940339;28;20023;-80
2021/06/11 07:11:42;;;;;;;11.10;6.45;;;;;;;;;;4984839;28;20022;-81
2021/06/11 07:14:07;;;;;;;9.15;7.05;;;;;;;;;;4956924;29;20103;-81
2021/06/11 07:16:33;;;;;;;8.23;6.20;;;;;;;;;;4971493;28;20436;-81
2021/06/11 07:18:58;;;;;;;11.43;7.90;;;;;;;;;;4966196;29;20026;-79
2021/06/11 07:21:23;;;;;;;12.70;9.18;;;;;;;;;;4971463;29;20023;-81
2021/06/11 07:23:49;;;;;;;13.75;9.52;;;;;;;;;;4943252;29;20047;-80
2021/06/11 07:26:14;;;;;;;11.60;9.38;;;;;;;;;;4959661;29;20047;-81
2021/06/11 07:28:39;;;;;;;14.30;10.68;;;;;;;;;;4959401;28;20023;-80
2021/06/11 07:31:05;;;;;;;15.48;11.48;;;;;;;;;;4940087;28;20019;-80
2021/06/11 07:33:30;;;;;;;17.88;11.75;;;;;;;;;;4969078;29;20047;-79
2021/06/11 07:35:57;;;;;;;13.40;10.98;;;;;;;;;;4954061;29;20027;-81
2021/06/11 07:38:23;;;;;;;13.82;10.50;;;;;;;;;;4970789;28;20098;-81
2021/06/11 07:40:51;;;;;;;16.00;13.27;;;;;;;;;;4953837;29;20058;-80
2021/06/11 07:43:17;;;;;;;18.52;14.73;;;;;;;;;;4953479;29;20032;-81
2021/06/11 07:45:42;;;;;;;19.70;14.57;;;;;;;;;;4944139;28;20022;-80
2021/06/11 07:48:07;;;;;;;17.42;13.48;;;;;;;;;;4973991;28;20099;-80
2021/06/11 07:50:32;;;;;;;18.88;14.35;;;;;;;;;;4956866;29;19999;-80
2021/06/11 07:52:58;;;;;;;18.90;14.35;;;;;;;;;;4972770;28;20046;-81
2021/06/11 07:58:01;;;;;;;19.65;14.70;;;;;;;;;;5764963;23;20059;-80
2021/06/11 08:00:27;;;;;;;20.73;16.52;;;;;;;;;;4989711;28;20030;-82
2021/06/11 08:55:25;;;;;;;57.38;35.40;;;;;;;;;;4935538;29;20079;-82
2021/06/11 08:57:50;;;;;;;53.90;34.83;;;;;;;;;;4940154;29;20047;-82
2021/06/11 09:00:19;;;;;;;49.55;31.60;;;;;;;;;;4941384;29;20000;-81
2021/06/11 09:03:04;;;;;;;46.53;29.58;;;;;;;;;;4940407;29;20056;-82
2021/06/11 09:05:29;;;;;;;39.55;27.33;;;;;;;;;;4940069;29;20000;-82
2021/06/11 09:08:10;;;;;;;33.22;23.15;;;;;;;;;;4939515;29;20020;-81
2021/06/11 09:10:35;;;;;;;26.50;19.70;;;;;;;;;;4941057;29;20032;-82
2021/06/11 09:13:00;;;;;;;26.85;19.38;;;;;;;;;;4940158;29;20018;-82
2021/06/11 09:15:26;;;;;;;25.30;18.52;;;;;;;;;;4924129;29;20028;-82
2021/06/11 09:17:53;;;;;;;23.48;17.30;;;;;;;;;;4953812;29;20020;-80
2021/06/11 09:20:19;;;;;;;24.83;17.50;;;;;;;;;;4921474;29;20071;-82
2021/06/11 09:22:48;;;;;;;27.73;19.25;;;;;;;;;;4939001;29;20016;-82
2021/06/11 09:25:35;;;;;;;24.27;18.45;;;;;;;;;;4931475;29;20062;-81
2021/06/11 09:28:01;;;;;;;24.65;18.02;;;;;;;;;;4938145;29;20024;-82
2021/06/11 09:30:31;;;;;;;28.33;18.58;;;;;;;;;;4957602;29;20031;-81
2021/06/11 09:32:59;;;;;;;24.67;17.98;;;;;;;;;;4939033;29;20035;-82
2021/06/11 09:35:44;;;;;;;27.13;19.17;;;;;;;;;;4939605;29;20019;-80
2021/06/11 09:38:12;;;;;;;;;;;;;;;;;;4929474;29;20379;-82
2021/06/11 09:40:43;;;;;;;29.50;20.10;;;;;;;;;;4944052;29;19915;-83
2021/06/11 09:43:09;;;;;;;28.80;19.90;;;;;;;;;;4936551;29;20044;-78
2021/06/11 09:45:34;;;;;;;29.38;20.50;;;;;;;;;;4930897;29;20032;-79
2021/06/11 09:47:59;;;;;;;40.28;26.45;;;;;;;;;;4919306;29;20043;-81
2021/06/11 09:50:26;;;;;;;50.58;31.15;;;;;;;;;;4935319;29;20023;-81
2021/06/11 09:52:55;;;;;;;41.30;26.83;;;;;;;;;;4941285;29;20173;-80
2021/06/11 09:55:28;;;;;;;44.58;28.90;;;;;;;;;;4940079;29;20015;-81
2021/06/11 09:58:04;;;;;;;44.75;28.80;;;;;;;;;;4938137;29;20028;-82
2021/06/11 10:00:30;;;;;;;46.45;29.35;;;;;;;;;;4942188;29;20005;-81
2021/06/11 10:02:57;;;;;;;53.17;31.38;;;;;;;;;;4946803;29;20063;-82
2021/06/11 10:05:22;;;;;;;55.20;32.20;;;;;;;;;;4941304;29;20020;-82
2021/06/11 10:07:48;;;;;;;54.92;32.22;;;;;;;;;;4947660;29;20012;-80
2021/06/11 10:10:13;;;;;;;56.30;31.15;;;;;;;;;;4945207;29;20019;-82
2021/06/11 10:12:38;;;;;;;50.55;30.02;;;;;;;;;;4930617;29;20101;-82
2021/06/11 10:15:04;;;;;;;37.38;25.13;;;;;;;;;;4942449;29;20016;-81
2021/06/11 10:17:30;;;;;;;34.50;23.02;;;;;;;;;;4939496;29;20004;-81
2021/06/11 10:19:55;;;;;;;31.48;23.73;;;;;;;;;;4936053;29;20024;-80
2021/06/11 10:22:21;;;;;;;29.95;21.63;;;;;;;;;;4930705;29;20088;-82
2021/06/11 10:24:47;;;;;;;32.13;23.45;;;;;;;;;;4926572;29;20028;-81
2021/06/11 10:27:12;;;;;;;28.33;21.88;;;;;;;;;;4943082;29;20123;-81
2021/06/11 10:29:39;;;;;;;28.17;20.08;;;;;;;;;;4943162;29;20027;-80
2021/06/11 10:32:04;;;;;;;29.00;22.27;;;;;;;;;;4947551;29;20016;-81
2021/06/11 10:34:48;;;;;;;33.40;22.70;;;;;;;;;;4943433;29;20028;-81
2021/06/11 10:37:33;;;;;;;31.77;22.10;;;;;;;;;;4923336;29;20036;-81
2021/06/11 10:40:13;;;;;;;27.27;19.33;;;;;;;;;;4935871;29;20282;-79
2021/06/11 10:42:39;;;;;;;25.10;17.20;;;;;;;;;;4940499;29;20008;-81
2021/06/11 10:45:05;;;;;;;22.48;15.57;;;;;;;;;;4940292;29;20061;-81
2021/06/11 10:47:34;;;;;;;24.42;16.48;;;;;;;;;;4922469;29;20048;-81
2021/06/11 10:50:03;;;;;;;20.80;15.85;;;;;;;;;;4945086;29;20024;-82
2021/06/11 10:52:33;;;;;;;22.77;17.80;;;;;;;;;;4925875;29;20027;-81
2021/06/11 10:55:14;;;;;;;23.33;17.73;;;;;;;;;;4931523;29;20056;-81
2021/06/11 10:57:42;;;;;;;22.23;16.77;;;;;;;;;;4923839;29;20015;-82
2021/06/11 11:00:23;;;;;;;24.25;17.27;;;;;;;;;;4938601;29;20092;-81
2021/06/11 11:02:49;;;;;;;23.73;16.70;;;;;;;;;;4936446;29;20027;-79
2021/06/11 11:05:33;;;;;;;24.45;16.23;;;;;;;;;;4915722;29;20022;-81
2021/06/11 11:07:59;;;;;;;18.30;14.32;;;;;;;;;;4937629;29;20105;-81
2021/06/11 11:10:34;;;;;;;17.65;14.40;;;;;;;;;;4937864;29;20088;-81
2021/06/11 11:13:02;;;;;;;16.23;13.43;;;;;;;;;;4936682;29;20051;-80
2021/06/11 11:15:35;;;;;;;17.98;12.10;;;;;;;;;;4955224;29;20122;-81
2021/06/11 11:18:02;;;;;;;18.77;12.02;;;;;;;;;;4940394;29;20092;-81
2021/06/11 11:20:33;;;;;;;18.65;12.77;;;;;;;;;;4947261;29;20038;-81
2021/06/11 11:23:01;;;;;;;18.38;11.80;;;;;;;;;;4943196;29;20047;-80
2021/06/11 11:25:27;;;;;;;14.13;10.50;;;;;;;;;;4923206;29;20051;-82
2021/06/11 11:27:54;;;;;;;13.18;9.98;;;;;;;;;;4934220;29;20083;-81
2021/06/11 11:30:20;;;;;;;9.32;8.02;;;;;;;;;;4940683;29;20008;-82
2021/06/11 11:32:45;;;;;;;8.70;7.13;;;;;;;;;;4940334;29;20011;-82
2021/06/11 11:35:13;;;;;;;10.05;6.70;;;;;;;;;;4929859;29;20028;-81
2021/06/11 11:37:39;;;;;;;7.70;6.93;;;;;;;;;;4938861;29;20024;-81
2021/06/11 11:40:04;;;;;;;8.20;7.40;;;;;;;;;;4941890;29;20004;-82
2021/06/11 11:42:30;;;;;;;11.48;8.80;;;;;;;;;;4932014;29;20414;-80
2021/06/11 11:44:55;;;;;;;10.38;7.72;;;;;;;;;;4906724;29;20064;-81
2021/06/11 11:47:20;;;;;;;11.60;8.75;;;;;;;;;;4942433;29;20036;-82
2021/06/11 11:49:46;;;;;;;11.48;8.75;;;;;;;;;;4937205;29;20091;-81
2021/06/11 11:52:11;;;;;;;9.85;8.13;;;;;;;;;;4919670;29;20024;-81
2021/06/11 11:54:37;;;;;;;12.70;9.98;;;;;;;;;;4937987;29;20036;-83
2021/06/11 11:57:02;;;;;;;15.73;11.07;;;;;;;;;;4941328;29;20015;-82
2021/06/11 11:59:28;;;;;;;13.05;11.35;;;;;;;;;;4939379;29;20020;-81
2021/06/11 12:12:13;;;;;;;13.13;11.70;;;;;;;;;;5891796;23;20006;-83
2021/06/11 12:14:39;;;;;;;15.68;12.13;;;;;;;;;;4995143;28;20027;-83
2021/06/11 12:17:04;;;;;;;13.60;10.35;;;;;;;;;;4991570;28;20034;-81
2021/06/11 12:19:30;;;;;;;10.88;9.68;;;;;;;;;;4994952;28;20038;-83
2021/06/11 12:21:55;;;;;;;12.35;9.43;;;;;;;;;;5000316;28;20010;-82
2021/06/11 12:24:21;;;;;;;11.48;8.88;;;;;;;;;;5001590;28;20031;-83
2021/06/11 12:26:47;;;;;;;13.95;8.63;;;;;;;;;;4999097;28;20006;-82
2021/06/11 12:29:13;;;;;;;12.00;8.13;;;;;;;;;;5003411;28;20070;-83
2021/06/11 12:31:39;;;;;;;12.10;8.02;;;;;;;;;;4995018;28;20026;-82
2021/06/11 12:34:06;;;;;;;8.18;6.32;;;;;;;;;;4995351;28;19995;-83
2021/06/11 12:36:34;;;;;;;8.63;6.40;;;;;;;;;;4994309;28;20015;-82
2021/06/11 12:39:00;;;;;;;9.50;6.72;;;;;;;;;;4990827;28;20046;-82
2021/06/11 12:41:27;;;;;;;9.05;6.40;;;;;;;;;;4999557;28;20015;-82
2021/06/11 12:46:37;;;;;;;;;;;;;;;;;;4997883;28;20057;-81
2021/06/11 12:49:03;;;;;;;8.43;5.90;;;;;;;;;;5006979;28;19894;-82
2021/06/11 12:51:31;;;;;;;7.05;4.88;;;;;;;;;;4997993;28;20018;-82
2021/06/11 12:53:57;;;;;;;7.07;5.60;;;;;;;;;;4989147;28;20042;-82
2021/06/11 12:56:22;;;;;;;7.90;4.80;;;;;;;;;;4997936;28;19995;-81
2021/06/11 12:58:48;;;;;;;7.78;5.82;;;;;;;;;;5000138;28;20019;-82
2021/06/11 13:01:14;;;;;;;5.72;4.85;;;;;;;;;;4997021;28;20034;-82
2021/06/11 13:03:39;;;;;;;8.85;4.47;;;;;;;;;;4994578;28;20031;-82
2021/06/11 13:06:07;;;;;;;7.22;4.80;;;;;;;;;;4999527;28;20057;-81
2021/06/11 13:08:33;;;;;;;5.35;4.20;;;;;;;;;;5000361;28;20026;-82
2021/06/11 13:10:58;;;;;;;5.13;4.03;;;;;;;;;;5000113;28;20030;-82
2021/06/11 13:13:23;;;;;;;4.88;4.38;;;;;;;;;;4994186;28;20054;-82
2021/06/11 13:15:49;;;;;;;5.45;4.32;;;;;;;;;;4994817;28;20003;-82
2021/06/11 13:18:15;;;;;;;5.32;4.50;;;;;;;;;;4989666;28;20120;-81
2021/06/11 13:20:40;;;;;;;6.80;4.15;;;;;;;;;;4992808;28;20030;-82
2021/06/11 13:23:06;;;;;;;5.97;4.25;;;;;;;;;;4999021;28;20023;-82
2021/06/11 13:25:33;;;;;;;6.90;4.50;;;;;;;;;;5002724;28;20002;-81
2021/06/11 13:27:59;;;;;;;6.38;4.07;;;;;;;;;;4997355;28;20059;-82
2021/06/11 13:30:25;;;;;;;5.32;3.88;;;;;;;;;;4992908;28;20015;-82
2021/06/11 13:32:51;;;;;;;5.57;3.50;;;;;;;;;;4997100;28;20051;-82
2021/06/11 13:35:17;;;;;;;5.15;3.85;;;;;;;;;;5002637;28;20515;-82
2021/06/11 13:37:42;;;;;;;5.25;4.00;;;;;;;;;;5001612;28;20034;-82
2021/06/11 13:40:08;;;;;;;5.00;3.80;;;;;;;;;;5005562;28;20026;-82
2021/06/11 13:42:34;;;;;;;5.25;4.10;;;;;;;;;;4994739;28;20067;-81
2021/06/11 13:44:59;;;;;;;5.43;3.88;;;;;;;;;;4988039;28;20162;-82
2021/06/11 13:47:25;;;;;;;5.07;4.28;;;;;;;;;;4992350;28;20042;-81
2021/06/11 13:49:50;;;;;;;8.13;4.10;;;;;;;;;;4996927;28;20055;-82
2021/06/11 13:52:16;;;;;;;5.60;4.50;;;;;;;;;;4999749;28;20057;-82
2021/06/11 13:54:41;;;;;;;6.07;4.28;;;;;;;;;;5003304;28;20022;-82
2021/06/11 13:57:07;;;;;;;5.80;4.82;;;;;;;;;;4993510;28;20011;-83
2021/06/11 13:59:34;;;;;;;7.13;3.95;;;;;;;;;;4997679;28;20007;-81
2021/06/11 14:02:00;;;;;;;6.53;4.93;;;;;;;;;;4983690;28;20027;-82
2021/06/11 14:04:25;;;;;;;5.18;3.80;;;;;;;;;;4973858;28;20007;-82
2021/06/11 14:06:51;;;;;;;6.28;3.95;;;;;;;;;;4990717;28;20035;-82
2021/06/11 14:09:18;;;;;;;5.72;4.30;;;;;;;;;;4970750;28;20029;-82
2021/06/11 14:11:43;;;;;;;5.50;4.35;;;;;;;;;;4998344;28;20055;-82
2021/06/11 14:14:09;;;;;;;9.38;4.55;;;;;;;;;;4984747;28;20054;-83
2021/06/11 14:16:34;;;;;;;5.30;4.53;;;;;;;;;;4999334;28;20019;-82
2021/06/11 14:19:02;;;;;;;6.70;4.72;;;;;;;;;;4999870;28;20023;-82
2021/06/11 14:21:27;;;;;;;5.95;4.90;;;;;;;;;;4987533;28;20031;-82
2021/06/11 14:23:53;;;;;;;4.90;4.28;;;;;;;;;;4996273;28;20023;-81
2021/06/11 14:28:53;;;;;;;4.93;4.00;;;;;;;;;;5286137;23;20043;-80
2021/06/11 14:31:18;;;;;;;6.60;3.90;;;;;;;;;;4976710;28;20089;-81
2021/06/11 14:33:44;;;;;;;4.82;3.80;;;;;;;;;;4987966;28;20374;-82
2021/06/11 14:36:10;;;;;;;4.85;3.90;;;;;;;;;;4995097;28;20007;-81
2021/06/11 14:38:35;;;;;;;4.45;3.83;;;;;;;;;;5051098;23;20059;-82
2021/06/11 14:46:11;;;;;;;3.97;3.47;;;;;;;;;;5557548;23;20028;-77
2021/06/11 14:48:36;;;;;;;6.30;4.03;;;;;;;;;;4982510;28;20461;-80
2021/06/11 14:51:02;;;;;;;5.57;3.95;;;;;;;;;;4985756;28;20105;-81
2021/06/11 14:53:33;;;;;;;5.18;4.47;;;;;;;;;;4998224;28;20018;-82
2021/06/11 14:56:04;;;;;;;5.85;4.07;;;;;;;;;;4981947;28;20072;-81
2021/06/11 15:03:40;;;;;;;7.63;4.30;;;;;;;;;;5777773;23;20075;-81
2021/06/11 15:08:40;;;;;;;6.03;3.60;;;;;;;;;;4974246;28;20176;-81
2021/06/11 15:11:06;;;;;;;10.18;3.95;;;;;;;;;;4954133;28;20016;-83
2021/06/11 15:13:32;;;;;;;5.15;3.80;;;;;;;;;;4953822;29;20091;-82
2021/06/11 15:15:57;;;;;;;4.10;3.47;;;;;;;;;;4959212;29;20079;-81
2021/06/11 15:18:23;;;;;;;7.50;3.50;;;;;;;;;;4968500;28;20046;-82
2021/06/11 15:20:49;;;;;;;5.57;3.60;;;;;;;;;;4956393;29;20197;-81
2021/06/11 15:23:15;;;;;;;4.03;3.25;;;;;;;;;;4960524;29;20056;-81
2021/06/11 15:25:40;;;;;;;4.32;3.60;;;;;;;;;;4964962;29;20023;-81
2021/06/11 15:28:07;;;;;;;5.65;4.07;;;;;;;;;;4944110;29;20019;-80
2021/06/11 15:30:32;;;;;;;5.28;3.75;;;;;;;;;;4967441;29;20027;-82
2021/06/11 15:32:59;;;;;;;7.28;3.90;;;;;;;;;;4950729;29;20023;-81
2021/06/11 15:35:24;;;;;;;5.18;3.65;;;;;;;;;;4965229;29;20114;-81
2021/06/11 15:37:50;;;;;;;6.28;4.15;;;;;;;;;;4949629;29;20058;-81
2021/06/11 15:40:15;;;;;;;6.47;3.90;;;;;;;;;;4949797;29;20027;-81
2021/06/11 15:42:40;;;;;;;7.40;3.78;;;;;;;;;;4967305;28;20262;-81
2021/06/11 15:45:07;;;;;;;4.30;3.35;;;;;;;;;;4967771;28;20030;-81
2021/06/11 15:47:32;;;;;;;4.95;3.75;;;;;;;;;;4966281;28;20054;-81
2021/06/11 15:49:58;;;;;;;6.38;3.92;;;;;;;;;;4972189;28;20019;-81
2021/06/11 15:52:24;;;;;;;6.60;3.95;;;;;;;;;;4969740;29;20023;-81
2021/06/11 15:54:49;;;;;;;5.93;3.45;;;;;;;;;;4936728;29;20110;-80
2021/06/11 15:57:14;;;;;;;5.25;3.67;;;;;;;;;;4971439;29;20023;-81